Mildmay, Canada
Current Conditions -  °F | °C
As of 10:00 PM on Saturday 22 Nov 2014 (Local Time) from CYVV Reporting Station
Haze Haze  
Wind Chill: 34°   Ceiling: 300
Heat Index: 41°   Visibility: 4mi
Dew Point: 39°   Wind: 12mph
Humidity: 93%   Direction: 230°SW
Pressure: 29.85"   Gusts: 18mph
Location:  44.03°N, 81.12°W
Report Text: CYVV 230300Z 23010G16KT 4SM BR OVC003 05/04 A2985 RMK SC8 SLP115
Loading
Personal Weather Stations






























Interactive Weather Map New forecast layout! Learn more

10-Day Weather Forecast

Advertisements
Track Severe Weather on mobile